createdAt,value
2023-04-16T00:01:06.345Z,9.60
2023-04-16T00:03:33.305Z,9.60
2023-04-16T00:06:00.816Z,9.60
2023-04-16T00:08:27.523Z,9.59
2023-04-16T00:10:54.299Z,9.61
2023-04-16T00:13:21.448Z,9.61
2023-04-16T00:15:48.632Z,9.61
2023-04-16T00:18:15.539Z,9.60
2023-04-16T00:20:42.229Z,9.60
2023-04-16T00:23:08.866Z,9.62
2023-04-16T00:25:35.577Z,9.58
2023-04-16T00:28:02.133Z,9.60
2023-04-16T00:30:28.930Z,9.57
2023-04-16T00:32:55.528Z,9.57
2023-04-16T00:35:22.090Z,9.60
2023-04-16T00:37:48.825Z,9.57
2023-04-16T00:40:15.582Z,9.58
2023-04-16T00:42:42.136Z,9.56
2023-04-16T00:45:09.712Z,9.58
2023-04-16T00:47:36.552Z,9.53
2023-04-16T00:50:04.619Z,9.57
2023-04-16T00:52:33.070Z,9.58
2023-04-16T00:54:59.983Z,9.56
2023-04-16T00:57:26.999Z,9.54
2023-04-16T00:59:54.306Z,9.59
2023-04-16T01:02:21.062Z,9.57
2023-04-16T01:04:48.044Z,9.54
2023-04-16T01:07:14.555Z,9.51
2023-04-16T01:09:41.389Z,9.58
2023-04-16T01:12:08.211Z,9.53
2023-04-16T01:14:36.379Z,9.55
2023-04-16T01:17:04.160Z,9.53
2023-04-16T01:19:36.287Z,9.51
2023-04-16T01:22:04.229Z,9.50
2023-04-16T01:24:31.252Z,9.53
2023-04-16T01:27:01.364Z,9.54
2023-04-16T01:29:27.997Z,9.52
2023-04-16T01:31:54.609Z,9.50
2023-04-16T01:34:21.463Z,9.51
2023-04-16T01:36:48.046Z,9.53
2023-04-16T01:39:16.347Z,9.47
2023-04-16T01:41:45.170Z,9.48
2023-04-16T01:44:11.688Z,9.49
2023-04-16T01:46:38.761Z,9.49
2023-04-16T01:49:07.469Z,9.46
2023-04-16T01:51:34.316Z,9.47
2023-04-16T01:54:01.288Z,9.46
2023-04-16T01:56:27.971Z,9.48
2023-04-16T01:58:56.254Z,9.44
2023-04-16T02:01:22.936Z,9.46
2023-04-16T02:03:50.055Z,9.48
2023-04-16T02:06:16.886Z,9.47
2023-04-16T02:08:43.499Z,9.47
2023-04-16T02:11:10.374Z,9.50
2023-04-16T02:13:37.349Z,9.50
2023-04-16T02:16:04.314Z,9.50
2023-04-16T02:18:30.848Z,9.50
2023-04-16T02:20:59.884Z,9.51
2023-04-16T02:23:26.807Z,9.48
2023-04-16T02:25:53.683Z,9.51
2023-04-16T02:28:20.267Z,9.49
2023-04-16T02:30:46.806Z,9.50
2023-04-16T02:33:13.468Z,9.52
2023-04-16T02:35:41.070Z,9.56
2023-04-16T02:38:08.354Z,9.57
2023-04-16T02:40:35.427Z,9.55
2023-04-16T02:43:02.114Z,9.56
2023-04-16T02:45:28.762Z,9.55
2023-04-16T02:47:55.367Z,9.59
2023-04-16T02:50:22.080Z,9.55
2023-04-16T02:52:48.690Z,9.57
2023-04-16T02:55:15.336Z,9.58
2023-04-16T02:57:42.762Z,9.59
2023-04-16T03:00:10.136Z,9.59
2023-04-16T03:02:36.901Z,9.59
2023-04-16T03:05:04.180Z,9.56
2023-04-16T03:07:31.037Z,9.59
2023-04-16T03:09:57.778Z,9.58
2023-04-16T03:12:24.407Z,9.57
2023-04-16T03:14:52.680Z,9.58
2023-04-16T03:17:19.384Z,9.60
2023-04-16T03:19:46.169Z,9.60
2023-04-16T03:22:12.848Z,9.60
2023-04-16T03:24:39.570Z,9.58
2023-04-16T03:27:06.382Z,9.59
2023-04-16T03:29:32.960Z,9.55
2023-04-16T03:31:59.538Z,9.53
2023-04-16T03:34:26.133Z,9.53
2023-04-16T03:36:52.710Z,9.55
2023-04-16T03:39:19.383Z,9.55
2023-04-16T03:41:46.350Z,9.52
2023-04-16T03:44:12.969Z,9.57
2023-04-16T03:46:39.639Z,9.51
2023-04-16T03:49:06.266Z,9.48
2023-04-16T03:51:32.870Z,9.50
2023-04-16T03:53:59.469Z,9.52
2023-04-16T03:56:26.165Z,9.48
2023-04-16T03:58:52.689Z,9.49
2023-04-16T04:01:19.199Z,9.46
2023-04-16T04:03:46.006Z,9.46
2023-04-16T04:06:12.816Z,9.48
2023-04-16T04:08:39.332Z,9.47
2023-04-16T04:11:06.012Z,9.44
2023-04-16T04:13:32.555Z,9.46
2023-04-16T04:15:59.151Z,9.42
2023-04-16T04:18:25.724Z,9.43
2023-04-16T04:20:52.336Z,9.46
2023-04-16T04:23:19.075Z,9.46
2023-04-16T04:25:45.998Z,9.47
2023-04-16T04:28:12.611Z,9.48
2023-04-16T04:30:39.320Z,9.48
2023-04-16T04:33:06.321Z,9.48
2023-04-16T04:35:33.346Z,9.44
2023-04-16T04:38:00.208Z,9.46
2023-04-16T04:40:26.773Z,9.49
2023-04-16T04:42:53.314Z,9.49
2023-04-16T04:45:19.859Z,9.49
2023-04-16T04:47:48.768Z,9.50
2023-04-16T04:50:15.594Z,9.49
2023-04-16T04:52:42.173Z,9.44
2023-04-16T04:55:08.988Z,9.43
2023-04-16T04:57:35.843Z,9.44
2023-04-16T05:00:04.121Z,9.46
2023-04-16T05:02:30.785Z,9.46
2023-04-16T05:04:58.874Z,9.48
2023-04-16T05:07:25.502Z,9.47
2023-04-16T05:09:52.064Z,9.44
2023-04-16T05:12:18.635Z,9.48
2023-04-16T05:14:45.394Z,9.47
2023-04-16T05:17:12.161Z,9.47
2023-04-16T05:19:39.037Z,9.46
2023-04-16T05:22:05.732Z,9.45
2023-04-16T05:24:32.654Z,9.47
2023-04-16T05:26:59.180Z,9.49
2023-04-16T05:29:25.855Z,9.47
2023-04-16T05:31:52.924Z,9.49
2023-04-16T05:34:19.526Z,9.49
2023-04-16T05:36:46.299Z,9.47
2023-04-16T05:39:12.905Z,9.49
2023-04-16T05:41:39.421Z,9.49
2023-04-16T05:44:05.966Z,9.48
2023-04-16T05:46:32.557Z,9.47
2023-04-16T05:48:59.160Z,9.49
2023-04-16T05:51:27.531Z,9.48
2023-04-16T05:53:54.054Z,9.49
2023-04-16T05:56:21.803Z,9.48
2023-04-16T05:58:48.321Z,9.51
2023-04-16T06:01:14.889Z,9.50
2023-04-16T06:03:41.639Z,9.52
2023-04-16T06:06:09.166Z,9.51
2023-04-16T06:08:35.831Z,9.49
2023-04-16T06:11:03.597Z,9.52
2023-04-16T06:13:30.256Z,9.52
2023-04-16T06:15:56.847Z,9.54
2023-04-16T06:18:23.621Z,9.55
2023-04-16T06:20:50.490Z,9.53
2023-04-16T06:23:17.168Z,9.56
2023-04-16T06:25:43.676Z,9.55
2023-04-16T06:28:10.217Z,9.59
2023-04-16T06:30:36.741Z,9.58
2023-04-16T06:33:03.419Z,9.60
2023-04-16T06:35:29.998Z,9.60
2023-04-16T06:37:56.904Z,9.62
2023-04-16T06:40:23.474Z,9.61
2023-04-16T06:42:50.306Z,9.63
2023-04-16T06:45:16.941Z,9.65
2023-04-16T06:47:43.603Z,9.66
2023-04-16T06:50:10.469Z,9.65
2023-04-16T06:52:37.075Z,9.66
2023-04-16T06:55:03.912Z,9.64
2023-04-16T06:57:30.565Z,9.69
2023-04-16T06:59:57.196Z,9.66
2023-04-16T07:02:24.324Z,9.69
2023-04-16T07:04:52.290Z,9.68
2023-04-16T07:07:18.978Z,9.69
2023-04-16T07:09:45.564Z,9.70
2023-04-16T07:12:12.355Z,9.75
2023-04-16T07:14:39.155Z,9.76
2023-04-16T07:17:05.887Z,9.76
2023-04-16T07:19:32.774Z,9.75
2023-04-16T07:22:03.555Z,9.76
2023-04-16T07:24:30.482Z,9.75
2023-04-16T07:26:57.208Z,9.76
2023-04-16T07:29:23.812Z,9.81
2023-04-16T07:31:51.407Z,9.80
2023-04-16T07:34:19.140Z,9.84
2023-04-16T07:36:45.978Z,9.84
2023-04-16T07:39:13.145Z,9.85
2023-04-16T07:41:40.985Z,9.86
2023-04-16T07:44:08.082Z,9.86
2023-04-16T07:46:45.630Z,9.91
2023-04-16T07:49:13.419Z,9.93
2023-04-16T07:51:40.036Z,9.89
2023-04-16T07:54:06.707Z,9.91
2023-04-16T07:56:33.369Z,9.93
2023-04-16T07:59:07.907Z,9.91
2023-04-16T08:01:41.590Z,9.89
2023-04-16T08:04:08.357Z,9.96
2023-04-16T08:06:35.050Z,9.97
2023-04-16T08:09:01.545Z,9.98
2023-04-16T08:11:28.831Z,9.97
2023-04-16T08:13:55.856Z,9.97
2023-04-16T08:16:22.707Z,10.00
2023-04-16T08:18:49.407Z,10.01
2023-04-16T08:21:15.998Z,10.04
2023-04-16T08:23:42.509Z,10.05
2023-04-16T08:26:09.033Z,10.08
2023-04-16T08:28:37.597Z,10.11
2023-04-16T08:31:04.302Z,10.14
2023-04-16T08:33:30.990Z,10.18
2023-04-16T08:35:57.578Z,10.17
2023-04-16T08:38:24.184Z,10.18
2023-04-16T08:40:51.252Z,10.16
2023-04-16T08:43:19.335Z,10.20
2023-04-16T08:45:47.545Z,10.25
2023-04-16T08:48:15.570Z,10.24
2023-04-16T08:50:44.038Z,10.25
2023-04-16T08:53:18.886Z,10.30
2023-04-16T08:55:50.618Z,10.32
2023-04-16T08:58:22.545Z,10.34
2023-04-16T09:00:49.819Z,10.38
2023-04-16T09:03:16.489Z,10.43
2023-04-16T09:05:44.059Z,10.48
2023-04-16T09:08:10.715Z,10.51
2023-04-16T09:10:37.331Z,10.55
2023-04-16T09:13:04.023Z,10.58
2023-04-16T09:15:30.805Z,10.60
2023-04-16T09:17:57.852Z,10.60
2023-04-16T09:20:24.731Z,10.63
2023-04-16T09:22:51.358Z,10.66
2023-04-16T09:25:21.352Z,10.67
2023-04-16T09:27:50.942Z,10.68
2023-04-16T09:30:26.170Z,10.69
2023-04-16T09:33:12.149Z,10.71
2023-04-16T09:36:05.954Z,10.75
2023-04-16T09:38:52.647Z,10.78
2023-04-16T09:41:20.564Z,10.78
2023-04-16T09:43:58.324Z,10.81
2023-04-16T09:46:34.974Z,10.81
2023-04-16T09:49:15.473Z,10.80
2023-04-16T09:51:43.645Z,10.80
2023-04-16T09:54:11.225Z,10.83
2023-04-16T09:56:43.678Z,10.80
2023-04-16T09:59:21.119Z,10.81
2023-04-16T10:01:53.332Z,10.84
2023-04-16T10:04:51.297Z,10.81
2023-04-16T10:07:19.515Z,10.83
2023-04-16T10:09:50.788Z,10.83
2023-04-16T10:12:17.309Z,10.82
2023-04-16T10:14:43.936Z,10.87
2023-04-16T10:17:10.994Z,10.89
2023-04-16T10:19:38.410Z,10.92
2023-04-16T10:22:05.523Z,10.96
2023-04-16T10:24:34.542Z,10.95
2023-04-16T10:27:01.778Z,10.97
2023-04-16T10:29:31.230Z,10.97
2023-04-16T10:31:59.428Z,11.00
2023-04-16T10:34:27.622Z,11.02
2023-04-16T10:36:55.294Z,11.01
2023-04-16T10:39:24.102Z,11.04
2023-04-16T10:41:52.592Z,11.07
2023-04-16T10:44:19.696Z,11.05
2023-04-16T10:46:49.797Z,11.01
2023-04-16T10:49:23.310Z,11.05
2023-04-16T10:52:02.243Z,11.05
2023-04-16T10:54:31.056Z,11.06
2023-04-16T10:57:01.648Z,11.08
2023-04-16T10:59:35.282Z,11.06
2023-04-16T11:02:08.573Z,11.09
2023-04-16T11:04:38.069Z,11.11
2023-04-16T11:07:07.482Z,11.15
2023-04-16T11:09:59.997Z,11.17
2023-04-16T11:12:29.682Z,11.22
2023-04-16T11:15:10.009Z,11.23
2023-04-16T11:17:40.223Z,11.22
2023-04-16T11:20:19.080Z,11.25
2023-04-16T11:22:50.650Z,11.30
2023-04-16T11:25:31.860Z,11.27
2023-04-16T11:27:59.261Z,11.28
2023-04-16T11:30:31.572Z,11.33
2023-04-16T11:32:58.230Z,11.31
2023-04-16T11:35:25.235Z,11.33
2023-04-16T11:37:56.865Z,11.31
2023-04-16T11:40:24.190Z,11.29
2023-04-16T11:42:50.828Z,11.33
2023-04-16T11:45:19.381Z,11.38
2023-04-16T11:47:51.734Z,11.39
2023-04-16T11:50:28.766Z,11.40
2023-04-16T11:52:58.949Z,11.42
2023-04-16T11:55:25.682Z,11.44
2023-04-16T11:57:52.765Z,11.45
2023-04-16T12:00:23.751Z,11.48
2023-04-16T12:02:53.931Z,11.50
2023-04-16T12:05:35.300Z,11.50
2023-04-16T12:08:04.618Z,11.52
2023-04-16T12:10:37.354Z,11.56
2023-04-16T12:13:14.484Z,11.55
2023-04-16T12:15:55.904Z,11.61
2023-04-16T12:18:26.078Z,11.66
2023-04-16T12:20:52.845Z,11.74
2023-04-16T12:23:27.795Z,11.76
2023-04-16T12:25:57.913Z,11.74
2023-04-16T12:28:29.948Z,11.74
2023-04-16T12:30:56.996Z,11.74
2023-04-16T12:33:23.765Z,11.73
2023-04-16T12:35:51.080Z,11.74
2023-04-16T12:38:17.999Z,11.75
2023-04-16T12:40:44.967Z,11.75
2023-04-16T12:43:11.545Z,11.75
2023-04-16T12:45:40.038Z,11.74
2023-04-16T12:48:07.137Z,11.69
2023-04-16T12:50:33.738Z,11.62
2023-04-16T12:53:00.345Z,11.64
2023-04-16T12:55:26.909Z,11.67
2023-04-16T12:57:54.612Z,11.73
2023-04-16T13:00:21.988Z,11.76
2023-04-16T13:02:48.770Z,11.73
2023-04-16T13:05:16.623Z,11.79
2023-04-16T13:07:43.323Z,11.80
2023-04-16T13:10:13.623Z,11.81
2023-04-16T13:12:40.335Z,11.82
2023-04-16T13:15:07.480Z,11.85
2023-04-16T13:17:34.073Z,11.82
2023-04-16T13:20:00.609Z,11.85
2023-04-16T13:22:27.190Z,11.87
2023-04-16T13:24:53.899Z,11.85
2023-04-16T13:27:21.081Z,11.90
2023-04-16T13:29:47.673Z,11.93
2023-04-16T13:32:14.810Z,11.94
2023-04-16T13:34:41.525Z,11.98
2023-04-16T13:37:08.130Z,11.94
2023-04-16T13:39:34.724Z,11.93
2023-04-16T13:42:01.822Z,11.92
2023-04-16T13:44:28.380Z,11.96
2023-04-16T13:46:56.130Z,11.97
2023-04-16T13:49:23.407Z,11.98
2023-04-16T13:51:50.033Z,11.97
2023-04-16T13:54:16.878Z,11.98
2023-04-16T13:56:43.995Z,12.01
2023-04-16T13:59:10.907Z,12.01
2023-04-16T14:01:37.817Z,11.99
2023-04-16T14:04:06.822Z,12.01
2023-04-16T14:06:34.720Z,12.04
2023-04-16T14:09:01.886Z,12.08
2023-04-16T14:11:28.719Z,12.14
2023-04-16T14:13:55.517Z,12.19
2023-04-16T14:16:22.296Z,12.23
2023-04-16T14:18:48.872Z,12.29
2023-04-16T14:21:15.583Z,12.35
2023-04-16T14:23:42.155Z,12.38
2023-04-16T14:26:08.931Z,12.44
2023-04-16T14:28:35.943Z,12.51
2023-04-16T14:31:02.557Z,12.58
2023-04-16T14:33:29.266Z,12.65
2023-04-16T14:35:56.061Z,12.64
2023-04-16T14:38:22.701Z,12.64
2023-04-16T14:40:49.412Z,12.58
2023-04-16T14:43:16.281Z,12.55
2023-04-16T14:45:42.928Z,12.52
2023-04-16T14:48:09.549Z,12.41
2023-04-16T14:50:37.918Z,12.38
2023-04-16T14:53:05.315Z,12.32
2023-04-16T14:55:32.303Z,12.37
2023-04-16T14:57:59.725Z,12.41
2023-04-16T15:00:27.273Z,12.43
2023-04-16T15:02:54.872Z,12.47
2023-04-16T15:05:22.026Z,12.52
2023-04-16T15:07:48.714Z,12.56
2023-04-16T15:10:15.628Z,12.59
2023-04-16T15:12:42.231Z,12.63
2023-04-16T15:15:09.455Z,12.68
2023-04-16T15:17:36.285Z,12.74
2023-04-16T15:20:05.921Z,12.79
2023-04-16T15:22:32.460Z,12.75
2023-04-16T15:24:59.019Z,12.75
2023-04-16T15:27:25.890Z,12.71
2023-04-16T15:29:53.882Z,12.69
2023-04-16T15:32:20.609Z,12.70
2023-04-16T15:34:47.209Z,12.67
2023-04-16T15:37:14.032Z,12.69
2023-04-16T15:39:40.706Z,12.68
2023-04-16T15:42:08.114Z,12.68
2023-04-16T15:44:34.793Z,12.66
2023-04-16T15:47:01.371Z,12.60
2023-04-16T15:49:28.078Z,12.58
2023-04-16T15:51:55.932Z,12.56
2023-04-16T15:54:22.505Z,12.52
2023-04-16T15:56:49.138Z,12.55
2023-04-16T15:59:15.991Z,12.55
2023-04-16T16:01:42.643Z,12.55
2023-04-16T16:04:09.733Z,12.57
2023-04-16T16:06:38.122Z,12.54
2023-04-16T16:09:04.980Z,12.50
2023-04-16T16:11:32.560Z,12.51
2023-04-16T16:14:02.387Z,12.51
2023-04-16T16:16:29.185Z,12.47
2023-04-16T16:18:55.938Z,12.44
2023-04-16T16:21:22.716Z,12.37
2023-04-16T16:23:49.352Z,12.33
2023-04-16T16:26:16.151Z,12.27
2023-04-16T16:28:45.940Z,12.23
2023-04-16T16:31:12.565Z,12.22
2023-04-16T16:33:41.522Z,12.20
2023-04-16T16:36:11.955Z,12.15
2023-04-16T16:38:40.837Z,12.11
2023-04-16T16:41:07.912Z,12.09
2023-04-16T16:43:37.924Z,12.08
2023-04-16T16:46:07.287Z,12.02
2023-04-16T16:48:33.993Z,12.04
2023-04-16T16:51:00.971Z,12.03
2023-04-16T16:53:27.683Z,12.04
2023-04-16T16:55:54.768Z,12.03
2023-04-16T16:58:21.392Z,11.96
2023-04-16T17:00:48.055Z,11.90
2023-04-16T17:03:14.841Z,11.87
2023-04-16T17:05:46.365Z,11.86
2023-04-16T17:08:16.531Z,11.76
2023-04-16T17:10:43.797Z,11.78
2023-04-16T17:13:10.635Z,11.70
2023-04-16T17:15:37.303Z,11.64
2023-04-16T17:18:04.169Z,11.59
2023-04-16T17:20:32.484Z,11.57
2023-04-16T17:22:59.481Z,11.52
2023-04-16T17:25:26.311Z,11.48
2023-04-16T17:27:53.024Z,11.40
2023-04-16T17:30:19.768Z,11.37
2023-04-16T17:32:46.514Z,11.32
2023-04-16T17:35:13.984Z,11.25
2023-04-16T17:37:40.731Z,11.24
2023-04-16T17:40:07.967Z,11.25
2023-04-16T17:42:35.352Z,11.17
2023-04-16T17:45:02.783Z,11.16
2023-04-16T17:47:34.037Z,11.13
2023-04-16T17:50:00.911Z,11.13
2023-04-16T17:52:27.545Z,11.11
2023-04-16T17:55:00.219Z,11.11
2023-04-16T17:57:27.827Z,11.05
2023-04-16T17:59:54.352Z,11.05
2023-04-16T18:02:21.205Z,11.00
2023-04-16T18:04:48.594Z,10.96
2023-04-16T18:07:15.358Z,10.94
2023-04-16T18:09:42.053Z,10.94
2023-04-16T18:12:08.709Z,10.92
2023-04-16T18:14:35.815Z,10.88
2023-04-16T18:17:04.328Z,10.84
2023-04-16T18:19:32.995Z,10.81
2023-04-16T18:21:59.551Z,10.79
2023-04-16T18:24:26.186Z,10.74
2023-04-16T18:26:53.591Z,10.76
2023-04-16T18:29:24.828Z,10.75
2023-04-16T18:31:52.002Z,10.75
2023-04-16T18:34:18.660Z,10.73
2023-04-16T18:36:45.913Z,10.69
2023-04-16T18:39:12.515Z,10.71
2023-04-16T18:41:40.655Z,10.68
2023-04-16T18:44:07.262Z,10.67
2023-04-16T18:46:33.854Z,10.64
2023-04-16T18:49:00.590Z,10.61
2023-04-16T18:51:27.233Z,10.62
2023-04-16T18:53:53.818Z,10.58
2023-04-16T18:56:20.719Z,10.56
2023-04-16T18:58:47.813Z,10.55
2023-04-16T19:01:15.525Z,10.55
2023-04-16T19:03:42.254Z,10.53
2023-04-16T19:06:09.237Z,10.48
2023-04-16T19:08:35.865Z,10.51
2023-04-16T19:11:02.439Z,10.51
2023-04-16T19:13:30.297Z,10.51
2023-04-16T19:16:01.377Z,10.50
2023-04-16T19:18:28.143Z,10.46
2023-04-16T19:21:01.273Z,10.43
2023-04-16T19:23:28.772Z,10.41
2023-04-16T19:25:56.784Z,10.39
2023-04-16T19:28:24.495Z,10.37
2023-04-16T19:30:52.057Z,10.37
2023-04-16T19:33:19.142Z,10.37
2023-04-16T19:35:46.966Z,10.35
2023-04-16T19:38:13.644Z,10.33
2023-04-16T19:40:40.992Z,10.31
2023-04-16T19:43:07.654Z,10.23
2023-04-16T19:45:34.427Z,10.27
2023-04-16T19:48:01.088Z,10.24
2023-04-16T19:50:27.789Z,10.21
2023-04-16T19:52:54.384Z,10.19
2023-04-16T19:55:21.208Z,10.20
2023-04-16T19:57:48.241Z,10.19
2023-04-16T20:00:15.177Z,10.23
2023-04-16T20:02:41.960Z,10.22
2023-04-16T20:05:09.154Z,10.17
2023-04-16T20:07:35.915Z,10.19
2023-04-16T20:10:02.964Z,10.17
2023-04-16T20:12:29.675Z,10.19
2023-04-16T20:14:56.307Z,10.19
2023-04-16T20:17:23.013Z,10.17
2023-04-16T20:19:51.228Z,10.18
2023-04-16T20:22:18.789Z,10.18
2023-04-16T20:24:47.767Z,10.15
2023-04-16T20:27:19.364Z,10.12
2023-04-16T20:29:46.207Z,10.10
2023-04-16T20:32:12.780Z,10.09
2023-04-16T20:34:39.955Z,10.07
2023-04-16T20:37:07.556Z,10.03
2023-04-16T20:39:34.579Z,10.06
2023-04-16T20:42:04.119Z,10.04
2023-04-16T20:44:40.399Z,10.01
2023-04-16T20:47:11.617Z,9.94
2023-04-16T20:49:38.442Z,9.93
2023-04-16T20:52:05.574Z,9.92
2023-04-16T20:54:32.123Z,9.93
2023-04-16T20:56:58.905Z,9.88
2023-04-16T20:59:25.966Z,9.93
2023-04-16T21:01:52.729Z,9.90
2023-04-16T21:04:19.750Z,9.92
2023-04-16T21:06:46.956Z,9.88
2023-04-16T21:09:13.714Z,9.90
2023-04-16T21:11:40.367Z,9.90
2023-04-16T21:14:06.977Z,9.89
2023-04-16T21:16:36.056Z,9.84
2023-04-16T21:19:03.106Z,9.84
2023-04-16T21:21:29.749Z,9.85
2023-04-16T21:23:56.300Z,9.84
2023-04-16T21:26:22.912Z,9.81
2023-04-16T21:28:49.541Z,9.79
2023-04-16T21:31:16.366Z,9.77
2023-04-16T21:33:43.087Z,9.76
2023-04-16T21:36:10.456Z,9.72
2023-04-16T21:38:37.027Z,9.73
2023-04-16T21:41:03.718Z,9.74
2023-04-16T21:43:31.910Z,9.74
2023-04-16T21:45:59.118Z,9.69
2023-04-16T21:48:25.910Z,9.71
2023-04-16T21:50:56.063Z,9.69
2023-04-16T21:53:22.655Z,9.71
2023-04-16T21:55:49.217Z,9.71
2023-04-16T21:58:15.781Z,9.67
2023-04-16T22:00:42.459Z,9.65
2023-04-16T22:03:12.380Z,9.64
2023-04-16T22:05:39.149Z,9.63
2023-04-16T22:08:23.228Z,9.66
2023-04-16T22:10:50.410Z,9.66
2023-04-16T22:13:18.286Z,9.65
2023-04-16T22:15:44.969Z,9.63
2023-04-16T22:18:11.576Z,9.61
2023-04-16T22:20:39.241Z,9.59
2023-04-16T22:23:06.733Z,9.61
2023-04-16T22:25:33.506Z,9.61
2023-04-16T22:28:01.564Z,9.61
2023-04-16T22:30:28.382Z,9.61
2023-04-16T22:32:55.267Z,9.59
2023-04-16T22:35:21.946Z,9.56
2023-04-16T22:37:48.551Z,9.54
2023-04-16T22:40:15.743Z,9.53
2023-04-16T22:42:42.327Z,9.50
2023-04-16T22:45:09.504Z,9.46
2023-04-16T22:47:36.200Z,9.46
2023-04-16T22:50:03.159Z,9.44
2023-04-16T22:52:29.778Z,9.45
2023-04-16T22:54:56.329Z,9.47
2023-04-16T22:57:25.509Z,9.45
2023-04-16T22:59:53.044Z,9.46
2023-04-16T23:02:20.692Z,9.46
2023-04-16T23:04:47.790Z,9.44
2023-04-16T23:07:15.086Z,9.45
2023-04-16T23:09:42.359Z,9.42
2023-04-16T23:12:09.069Z,9.43
2023-04-16T23:14:36.747Z,9.44
2023-04-16T23:17:03.363Z,9.43
2023-04-16T23:19:31.168Z,9.45
2023-04-16T23:21:57.941Z,9.41
2023-04-16T23:24:24.510Z,9.43
2023-04-16T23:26:52.390Z,9.39
2023-04-16T23:29:20.628Z,9.39
2023-04-16T23:31:47.619Z,9.36
2023-04-16T23:34:14.606Z,9.36
2023-04-16T23:36:41.283Z,9.33
2023-04-16T23:39:07.821Z,9.31
2023-04-16T23:41:34.697Z,9.30
2023-04-16T23:44:01.380Z,9.30
2023-04-16T23:46:28.000Z,9.31
2023-04-16T23:48:57.300Z,9.32
2023-04-16T23:51:23.835Z,9.32
2023-04-16T23:53:50.498Z,9.31
2023-04-16T23:56:17.237Z,9.34
2023-04-16T23:58:43.861Z,9.30
